createdAt,value
2022-11-12T00:00:18.137Z,92.10
2022-11-12T00:01:21.028Z,92.11
2022-11-12T00:02:24.054Z,92.08
2022-11-12T00:03:58.606Z,92.05
2022-11-12T00:05:01.408Z,92.02
2022-11-12T00:06:04.353Z,92.09
2022-11-12T00:07:39.184Z,92.07
2022-11-12T00:08:41.822Z,92.13
2022-11-12T00:09:44.546Z,92.23
2022-11-12T00:11:19.043Z,92.17
2022-11-12T00:12:21.913Z,92.32
2022-11-12T00:13:24.641Z,92.33
2022-11-12T00:14:59.261Z,92.44
2022-11-12T00:16:01.948Z,92.39
2022-11-12T00:17:04.648Z,92.43
2022-11-12T00:18:39.174Z,92.49
2022-11-12T00:19:42.140Z,92.54
2022-11-12T00:20:44.983Z,92.59
2022-11-12T00:22:19.647Z,92.61
2022-11-12T00:23:22.523Z,92.56
2022-11-12T00:24:25.439Z,92.60
2022-11-12T00:26:00.369Z,92.54
2022-11-12T00:27:03.131Z,92.61
2022-11-12T00:28:05.977Z,92.71
2022-11-12T00:29:47.033Z,92.72
2022-11-12T00:30:49.794Z,92.69
2022-11-12T00:31:52.599Z,92.79
2022-11-12T00:33:27.293Z,93.08
2022-11-12T00:34:30.016Z,93.13
2022-11-12T00:35:32.655Z,93.17
2022-11-12T00:37:07.451Z,93.22
2022-11-12T00:38:10.145Z,93.19
2022-11-12T00:39:13.799Z,93.13
2022-11-12T00:40:48.477Z,93.41
2022-11-12T00:41:51.147Z,93.36
2022-11-12T00:42:53.825Z,93.30
2022-11-12T00:44:28.426Z,93.23
2022-11-12T00:45:31.156Z,93.21
2022-11-12T00:46:33.903Z,93.24
2022-11-12T00:48:08.612Z,93.26
2022-11-12T00:49:11.932Z,93.26
2022-11-12T00:50:14.681Z,93.24
2022-11-12T00:51:49.267Z,93.33
2022-11-12T00:52:51.914Z,93.36
2022-11-12T00:53:54.838Z,93.28
2022-11-12T00:55:29.453Z,93.24
2022-11-12T00:56:36.182Z,93.22
2022-11-12T00:57:38.916Z,93.15
2022-11-12T00:59:14.001Z,93.30
2022-11-12T01:00:17.770Z,93.30
2022-11-12T01:01:20.709Z,93.33
2022-11-12T01:02:23.822Z,93.31
2022-11-12T01:04:09.481Z,93.40
2022-11-12T01:05:12.447Z,93.41
2022-11-12T01:06:15.389Z,93.38
2022-11-12T01:07:55.628Z,93.47
2022-11-12T01:08:58.878Z,93.40
2022-11-12T01:10:01.676Z,93.41
2022-11-12T01:11:36.551Z,93.43
2022-11-12T01:12:39.241Z,93.43
2022-11-12T01:13:49.484Z,93.61
2022-11-12T01:15:23.916Z,93.63
2022-11-12T01:16:26.761Z,93.51
2022-11-12T01:17:29.575Z,93.53
2022-11-12T01:19:04.961Z,93.47
2022-11-12T01:20:07.708Z,93.42
2022-11-12T01:21:10.430Z,93.40
2022-11-12T01:22:44.998Z,93.45
2022-11-12T01:23:47.739Z,93.41
2022-11-12T01:24:50.474Z,93.44
2022-11-12T01:26:25.165Z,93.44
2022-11-12T01:27:27.995Z,93.39
2022-11-12T01:28:31.517Z,93.35
2022-11-12T01:30:06.092Z,93.43
2022-11-12T01:31:08.805Z,93.36
2022-11-12T01:32:11.567Z,93.32
2022-11-12T01:33:46.066Z,93.47
2022-11-12T01:34:48.784Z,93.45
2022-11-12T01:35:51.468Z,93.40
2022-11-12T01:37:26.248Z,93.43
2022-11-12T01:38:29.679Z,93.43
2022-11-12T01:39:32.401Z,93.44
2022-11-12T01:41:06.839Z,93.37
2022-11-12T01:42:09.665Z,93.37
2022-11-12T01:43:12.374Z,93.32
2022-11-12T01:44:46.866Z,93.39
2022-11-12T01:45:49.723Z,93.48
2022-11-12T01:46:52.525Z,93.49
2022-11-12T01:48:27.282Z,93.69
2022-11-12T01:49:30.303Z,93.68
2022-11-12T01:50:39.304Z,93.71
2022-11-12T01:52:13.909Z,93.75
2022-11-12T01:53:16.807Z,93.75
2022-11-12T01:54:19.746Z,93.75
2022-11-12T01:55:54.138Z,93.77
2022-11-12T01:56:56.861Z,93.75
2022-11-12T01:57:59.799Z,93.78
2022-11-12T01:59:34.350Z,93.72
2022-11-12T02:00:18.209Z,93.72
2022-11-12T02:01:21.429Z,93.71
2022-11-12T02:02:24.594Z,93.74
2022-11-12T02:03:59.262Z,93.78
2022-11-12T02:05:01.980Z,93.70
2022-11-12T02:06:04.699Z,93.75
2022-11-12T02:07:39.736Z,93.70
2022-11-12T02:08:42.423Z,93.68
2022-11-12T02:09:45.205Z,93.65
2022-11-12T02:11:19.713Z,93.61
2022-11-12T02:12:22.366Z,93.58
2022-11-12T02:13:25.153Z,93.62
2022-11-12T02:14:59.654Z,93.61
2022-11-12T02:16:02.431Z,93.60
2022-11-12T02:17:05.212Z,93.62
2022-11-12T02:18:39.854Z,93.54
2022-11-12T02:19:42.588Z,93.53
2022-11-12T02:20:45.229Z,93.54
2022-11-12T02:22:19.634Z,93.56
2022-11-12T02:23:22.419Z,93.51
2022-11-12T02:24:25.138Z,93.50
2022-11-12T02:25:59.689Z,93.47
2022-11-12T02:27:02.362Z,93.34
2022-11-12T02:28:05.167Z,93.42
2022-11-12T02:29:40.467Z,93.46
2022-11-12T02:30:43.262Z,93.42
2022-11-12T02:31:46.047Z,93.49
2022-11-12T02:33:20.639Z,93.54
2022-11-12T02:34:23.332Z,93.58
2022-11-12T02:35:25.917Z,93.64
2022-11-12T02:37:00.370Z,93.60
2022-11-12T02:38:03.000Z,93.61
2022-11-12T02:39:06.322Z,93.66
2022-11-12T02:40:41.034Z,93.71
2022-11-12T02:41:43.783Z,93.76
2022-11-12T02:42:46.578Z,93.79
2022-11-12T02:44:21.219Z,93.76
2022-11-12T02:45:24.047Z,93.79
2022-11-12T02:46:26.824Z,93.86
2022-11-12T02:48:01.334Z,93.95
2022-11-12T02:49:16.812Z,94.02
2022-11-12T02:50:19.479Z,94.07
2022-11-12T02:51:53.968Z,94.33
2022-11-12T02:52:56.869Z,94.36
2022-11-12T02:53:59.709Z,94.53
2022-11-12T02:55:34.334Z,94.64
2022-11-12T02:56:37.033Z,94.54
2022-11-12T02:57:39.932Z,94.44
2022-11-12T02:59:15.485Z,94.39
2022-11-12T03:00:17.962Z,94.36
2022-11-12T03:01:21.109Z,94.32
2022-11-12T03:02:24.053Z,94.21
2022-11-12T03:03:59.060Z,94.22
2022-11-12T03:05:01.760Z,94.30
2022-11-12T03:06:04.763Z,94.37
2022-11-12T03:07:39.727Z,94.41
2022-11-12T03:08:42.559Z,94.57
2022-11-12T03:09:45.176Z,94.65
2022-11-12T03:11:19.543Z,94.51
2022-11-12T03:12:22.302Z,94.54
2022-11-12T03:13:25.034Z,94.54
2022-11-12T03:14:59.654Z,94.54
2022-11-12T03:16:02.458Z,94.51
2022-11-12T03:17:05.155Z,94.48
2022-11-12T03:18:39.664Z,94.45
2022-11-12T03:19:42.536Z,94.42
2022-11-12T03:20:45.194Z,94.42
2022-11-12T03:22:19.788Z,94.37
2022-11-12T03:23:22.524Z,94.37
2022-11-12T03:24:25.055Z,94.42
2022-11-12T03:25:59.668Z,94.37
2022-11-12T03:27:02.314Z,94.40
2022-11-12T03:28:05.034Z,94.43
2022-11-12T03:29:40.039Z,94.43
2022-11-12T03:30:42.815Z,94.40
2022-11-12T03:31:45.469Z,94.41
2022-11-12T03:33:19.881Z,94.44
2022-11-12T03:34:22.591Z,94.41
2022-11-12T03:35:25.339Z,94.50
2022-11-12T03:36:59.970Z,94.51
2022-11-12T03:38:02.668Z,94.47
2022-11-12T03:39:05.959Z,94.49
2022-11-12T03:40:40.613Z,94.44
2022-11-12T03:41:43.315Z,94.44
2022-11-12T03:42:46.033Z,94.42
2022-11-12T03:44:20.931Z,94.41
2022-11-12T03:45:23.564Z,94.44
2022-11-12T03:46:26.306Z,94.50
2022-11-12T03:48:07.556Z,94.50
2022-11-12T03:49:10.887Z,94.52
2022-11-12T03:50:13.591Z,94.62
2022-11-12T03:51:48.444Z,94.59
2022-11-12T03:52:51.309Z,94.65
2022-11-12T03:53:54.000Z,94.73
2022-11-12T03:55:28.459Z,94.70
2022-11-12T03:56:31.086Z,94.76
2022-11-12T03:57:33.854Z,94.75
2022-11-12T03:59:08.765Z,94.78
2022-11-12T04:00:17.420Z,94.84
2022-11-12T04:01:20.471Z,94.80
2022-11-12T04:02:23.497Z,94.86
2022-11-12T04:03:58.079Z,94.87
2022-11-12T04:05:00.904Z,94.94
2022-11-12T04:06:03.522Z,94.89
2022-11-12T04:07:38.437Z,94.96
2022-11-12T04:08:41.073Z,94.92
2022-11-12T04:09:43.848Z,94.93
2022-11-12T04:11:18.558Z,94.95
2022-11-12T04:12:21.251Z,94.93
2022-11-12T04:13:23.998Z,94.86
2022-11-12T04:14:58.582Z,94.79
2022-11-12T04:16:01.370Z,94.73
2022-11-12T04:17:04.046Z,94.76
2022-11-12T04:18:38.540Z,94.77
2022-11-12T04:19:41.194Z,94.76
2022-11-12T04:20:44.051Z,94.72
2022-11-12T04:22:18.770Z,94.73
2022-11-12T04:23:21.457Z,94.82
2022-11-12T04:24:24.230Z,94.83
2022-11-12T04:25:58.880Z,94.91
2022-11-12T04:27:01.767Z,94.84
2022-11-12T04:28:04.537Z,94.83
2022-11-12T04:29:43.305Z,94.83
2022-11-12T04:30:46.046Z,94.80
2022-11-12T04:31:48.830Z,94.83
2022-11-12T04:33:23.462Z,94.72
2022-11-12T04:34:26.258Z,94.70
2022-11-12T04:35:29.409Z,94.68
2022-11-12T04:37:04.095Z,94.66
2022-11-12T04:38:11.455Z,94.72
2022-11-12T04:39:14.721Z,94.69
2022-11-12T04:40:49.009Z,94.74
2022-11-12T04:41:51.769Z,94.72
2022-11-12T04:42:54.682Z,94.73
2022-11-12T04:44:29.385Z,94.75
2022-11-12T04:45:32.276Z,94.81
2022-11-12T04:46:35.007Z,94.87
2022-11-12T04:48:09.557Z,94.91
2022-11-12T04:49:12.761Z,94.90
2022-11-12T04:50:15.614Z,94.89
2022-11-12T04:51:50.285Z,94.90
2022-11-12T04:52:52.997Z,94.94
2022-11-12T04:53:55.719Z,94.90
2022-11-12T04:55:30.264Z,94.93
2022-11-12T04:56:33.052Z,95.07
2022-11-12T04:57:35.893Z,95.11
2022-11-12T04:59:18.503Z,95.14
2022-11-12T05:00:18.133Z,95.13
2022-11-12T05:01:21.287Z,95.19
2022-11-12T05:02:24.395Z,95.25
2022-11-12T05:03:59.055Z,95.27
2022-11-12T05:05:01.676Z,95.25
2022-11-12T05:05:47.716Z,95.25
2022-11-12T05:06:50.879Z,95.31
2022-11-12T05:07:54.796Z,95.27
2022-11-12T05:09:29.833Z,95.24
2022-11-12T05:10:32.830Z,95.21
2022-11-12T05:11:36.259Z,95.20
2022-11-12T05:13:11.451Z,95.35
2022-11-12T05:14:14.560Z,95.34
2022-11-12T05:15:17.744Z,95.29
2022-11-12T05:16:52.925Z,95.21
2022-11-12T05:17:56.042Z,95.18
2022-11-12T05:18:59.462Z,95.15
2022-11-12T05:20:34.432Z,95.17
2022-11-12T05:21:43.207Z,95.14
2022-11-12T05:23:05.691Z,95.11
2022-11-12T05:24:48.263Z,95.11
2022-11-12T05:25:51.226Z,95.11
2022-11-12T05:26:54.425Z,95.16
2022-11-12T05:28:29.822Z,95.12
2022-11-12T05:29:32.888Z,95.14
2022-11-12T05:30:35.915Z,95.19
2022-11-12T05:32:10.747Z,95.12
2022-11-12T05:33:13.772Z,95.14
2022-11-12T05:34:22.600Z,95.14
2022-11-12T05:35:58.253Z,95.11
2022-11-12T05:37:01.577Z,95.08
2022-11-12T05:38:04.775Z,95.07
2022-11-12T05:39:40.136Z,95.07
2022-11-12T05:40:43.192Z,95.12
2022-11-12T05:42:17.432Z,95.13
2022-11-12T05:43:52.223Z,95.09
2022-11-12T05:44:55.416Z,95.12
2022-11-12T05:45:58.712Z,95.05
2022-11-12T05:47:33.681Z,95.06
2022-11-12T05:48:37.691Z,95.01
2022-11-12T05:49:40.813Z,94.94
2022-11-12T05:51:53.599Z,94.94
2022-11-12T05:52:56.475Z,94.91
2022-11-12T05:53:59.514Z,94.89
2022-11-12T05:55:42.526Z,95.07
2022-11-12T05:56:45.435Z,95.09
2022-11-12T05:57:48.495Z,95.05
2022-11-12T05:59:23.576Z,95.05
2022-11-12T06:00:18.163Z,95.00
2022-11-12T06:01:21.171Z,95.03
2022-11-12T06:02:24.473Z,95.02
2022-11-12T06:04:01.618Z,94.99
2022-11-12T06:05:04.909Z,94.94
2022-11-12T06:06:07.980Z,94.95
2022-11-12T06:07:43.290Z,94.95
2022-11-12T06:08:46.547Z,94.91
2022-11-12T06:09:49.657Z,94.91
2022-11-12T06:11:32.748Z,94.90
2022-11-12T06:12:36.028Z,94.86
2022-11-12T06:13:39.266Z,94.85
2022-11-12T06:15:14.318Z,94.88
2022-11-12T06:16:24.162Z,94.84
2022-11-12T06:17:27.105Z,94.86
2022-11-12T06:19:02.271Z,94.91
2022-11-12T06:20:05.493Z,94.91
2022-11-12T06:21:08.572Z,94.90
2022-11-12T06:22:44.347Z,94.93
2022-11-12T06:23:47.153Z,94.88
2022-11-12T06:24:50.661Z,94.89
2022-11-12T06:26:25.862Z,94.86
2022-11-12T06:27:29.160Z,94.89
2022-11-12T06:28:32.891Z,94.88
2022-11-12T06:30:08.373Z,94.77
2022-11-12T06:31:17.469Z,94.82
2022-11-12T06:32:20.711Z,94.83
2022-11-12T06:33:56.113Z,94.81
2022-11-12T06:34:59.028Z,94.79
2022-11-12T06:36:01.895Z,94.83
2022-11-12T06:37:37.177Z,94.82
2022-11-12T06:38:40.498Z,94.82
2022-11-12T06:39:43.545Z,94.83
2022-11-12T06:41:18.720Z,94.84
2022-11-12T06:42:21.884Z,94.84
2022-11-12T06:43:25.032Z,94.79
2022-11-12T06:45:08.195Z,94.78
2022-11-12T06:46:11.477Z,94.84
2022-11-12T06:47:14.575Z,94.81
2022-11-12T06:48:49.776Z,94.80
2022-11-12T06:49:53.038Z,94.77
2022-11-12T06:50:56.168Z,94.81
2022-11-12T06:52:31.305Z,94.78
2022-11-12T06:53:34.668Z,94.75
2022-11-12T06:54:37.825Z,94.74
2022-11-12T06:56:12.769Z,94.73
2022-11-12T06:57:15.864Z,94.70
2022-11-12T06:58:19.036Z,94.71
2022-11-12T06:59:54.707Z,94.72
2022-11-12T07:00:17.978Z,94.72
2022-11-12T07:01:21.348Z,94.73
2022-11-12T07:02:25.136Z,94.71
2022-11-12T07:04:01.088Z,94.76
2022-11-12T07:05:04.274Z,94.69
2022-11-12T07:06:07.483Z,94.65
2022-11-12T07:07:48.605Z,94.69
2022-11-12T07:08:51.484Z,94.68
2022-11-12T07:09:54.542Z,94.64
2022-11-12T07:11:29.376Z,94.67
2022-11-12T07:12:32.419Z,94.66
2022-11-12T07:13:39.806Z,94.65
2022-11-12T07:15:14.811Z,94.66
2022-11-12T07:16:18.125Z,94.64
2022-11-12T07:17:21.157Z,94.67
2022-11-12T07:18:56.262Z,94.66
2022-11-12T07:20:03.703Z,94.71
2022-11-12T07:21:07.256Z,94.69
2022-11-12T07:22:42.466Z,94.77
2022-11-12T07:23:45.600Z,94.76
2022-11-12T07:24:48.763Z,94.78
2022-11-12T07:26:24.055Z,94.81
2022-11-12T07:27:33.721Z,94.86
2022-11-12T07:28:37.180Z,94.88
2022-11-12T07:30:38.613Z,94.86
2022-11-12T07:31:41.791Z,94.86
2022-11-12T07:32:52.936Z,94.87
2022-11-12T07:34:28.033Z,94.89
2022-11-12T07:35:31.161Z,95.03
2022-11-12T07:36:34.466Z,95.00
2022-11-12T07:38:09.517Z,95.00
2022-11-12T07:39:13.533Z,95.01
2022-11-12T07:40:16.745Z,95.40
2022-11-12T07:41:52.111Z,95.24
2022-11-12T07:42:55.180Z,95.34
2022-11-12T07:43:58.457Z,95.32
2022-11-12T07:45:33.903Z,95.25
2022-11-12T07:46:37.280Z,95.24
2022-11-12T07:47:40.291Z,95.22
2022-11-12T07:49:16.106Z,95.19
2022-11-12T07:50:19.012Z,95.20
2022-11-12T07:51:22.207Z,95.23
2022-11-12T07:52:57.655Z,95.31
2022-11-12T07:54:05.488Z,95.27
2022-11-12T07:55:08.515Z,95.24
2022-11-12T07:56:44.068Z,95.26
2022-11-12T07:57:47.516Z,95.31
2022-11-12T07:58:50.665Z,95.28
2022-11-12T08:00:17.367Z,95.30
2022-11-12T08:01:20.721Z,95.37
2022-11-12T08:02:24.490Z,95.31
2022-11-12T08:03:59.672Z,95.48
2022-11-12T08:05:02.806Z,95.43
2022-11-12T08:06:14.084Z,95.48
2022-11-12T08:07:50.915Z,95.57
2022-11-12T08:08:54.947Z,95.58
2022-11-12T08:09:58.289Z,95.56
2022-11-12T08:11:33.520Z,95.96
2022-11-12T08:12:36.817Z,95.80
2022-11-12T08:13:40.086Z,95.77
2022-11-12T08:15:15.094Z,95.76
2022-11-12T08:16:18.340Z,95.82
2022-11-12T08:17:21.509Z,95.75
2022-11-12T08:18:56.813Z,95.81
2022-11-12T08:20:00.107Z,95.88
2022-11-12T08:21:03.253Z,95.88
2022-11-12T08:22:38.470Z,95.82
2022-11-12T08:23:47.215Z,95.79
2022-11-12T08:24:50.463Z,95.73
2022-11-12T08:26:25.608Z,95.77
2022-11-12T08:27:28.859Z,95.73
2022-11-12T08:28:32.773Z,96.09
2022-11-12T08:30:07.992Z,95.90
2022-11-12T08:31:11.151Z,95.93
2022-11-12T08:32:14.266Z,95.79
2022-11-12T08:33:49.940Z,95.90
2022-11-12T08:34:56.814Z,95.87
2022-11-12T08:36:00.290Z,95.88
2022-11-12T08:37:35.455Z,95.97
2022-11-12T08:38:38.645Z,95.88
2022-11-12T08:39:41.737Z,95.83
2022-11-12T08:41:16.687Z,95.81
2022-11-12T08:42:20.045Z,95.80
2022-11-12T08:43:23.203Z,95.79
2022-11-12T08:45:01.129Z,95.80
2022-11-12T08:46:04.365Z,95.87
2022-11-12T08:47:07.586Z,95.84
2022-11-12T08:48:42.942Z,95.87
2022-11-12T08:49:53.389Z,95.88
2022-11-12T08:50:56.417Z,95.90
2022-11-12T08:52:31.467Z,95.78
2022-11-12T08:53:34.772Z,95.83
2022-11-12T08:54:37.983Z,95.73
2022-11-12T08:56:12.998Z,95.71
2022-11-12T08:57:15.964Z,95.73
2022-11-12T08:58:19.244Z,95.67
2022-11-12T08:59:59.591Z,95.61
2022-11-12T09:00:18.082Z,95.69
2022-11-12T09:01:21.110Z,95.58
2022-11-12T09:02:24.765Z,95.64
2022-11-12T09:03:59.703Z,95.57
2022-11-12T09:05:02.657Z,95.59
2022-11-12T09:06:05.857Z,95.63
2022-11-12T09:07:56.555Z,95.76
2022-11-12T09:09:00.434Z,95.52
2022-11-12T09:10:03.858Z,95.52
2022-11-12T09:11:39.384Z,95.49
2022-11-12T09:12:53.097Z,95.34
2022-11-12T09:13:56.463Z,95.36
2022-11-12T09:15:44.232Z,95.37
2022-11-12T09:16:47.285Z,95.42
2022-11-12T09:17:50.326Z,95.39
2022-11-12T09:19:25.504Z,95.45
2022-11-12T09:20:34.961Z,95.48
2022-11-12T09:21:38.283Z,95.54
2022-11-12T09:23:13.164Z,95.43
2022-11-12T09:24:16.407Z,95.35
2022-11-12T09:25:19.418Z,95.35
2022-11-12T09:26:54.813Z,95.30
2022-11-12T09:27:58.084Z,95.13
2022-11-12T09:29:01.367Z,95.16
2022-11-12T09:30:36.567Z,95.13
2022-11-12T09:31:39.651Z,95.04
2022-11-12T09:32:42.875Z,95.01
2022-11-12T09:34:18.525Z,94.89
2022-11-12T09:35:22.051Z,94.93
2022-11-12T09:36:25.370Z,94.99
2022-11-12T09:38:06.843Z,94.90
2022-11-12T09:39:10.972Z,94.84
2022-11-12T09:40:14.073Z,94.86
2022-11-12T09:41:49.464Z,94.68
2022-11-12T09:42:59.327Z,94.61
2022-11-12T09:44:02.509Z,94.56
2022-11-12T09:45:37.962Z,94.58
2022-11-12T09:47:19.445Z,94.45
2022-11-12T09:48:22.831Z,94.38
2022-11-12T09:49:58.555Z,94.14
2022-11-12T09:51:02.047Z,94.31
2022-11-12T09:52:05.114Z,94.30
2022-11-12T09:53:44.146Z,94.28
2022-11-12T09:54:47.758Z,94.21
2022-11-12T09:55:51.067Z,94.12
2022-11-12T09:57:26.317Z,94.07
2022-11-12T09:58:30.197Z,93.89
2022-11-12T09:59:33.507Z,93.83
2022-11-12T10:00:17.785Z,93.84
2022-11-12T10:01:25.807Z,93.96
2022-11-12T10:02:29.322Z,93.93
2022-11-12T10:04:04.233Z,93.86
2022-11-12T10:05:07.624Z,93.98
2022-11-12T10:06:19.086Z,93.90
2022-11-12T10:07:55.866Z,93.22
2022-11-12T10:08:59.194Z,93.33
2022-11-12T10:10:02.555Z,93.16
2022-11-12T10:11:37.920Z,92.89
2022-11-12T10:12:46.182Z,92.86
2022-11-12T10:13:49.490Z,92.92
2022-11-12T10:15:24.437Z,92.93
2022-11-12T10:16:27.677Z,93.10
2022-11-12T10:17:31.012Z,92.68
2022-11-12T10:19:06.717Z,92.43
2022-11-12T10:20:10.093Z,92.12
2022-11-12T10:21:19.248Z,91.88
2022-11-12T10:22:54.414Z,92.34
2022-11-12T10:23:57.641Z,91.60
2022-11-12T10:25:00.821Z,91.91
2022-11-12T10:26:36.316Z,91.93
2022-11-12T10:27:39.542Z,91.80
2022-11-12T10:28:45.080Z,91.75
2022-11-12T10:30:20.617Z,91.71
2022-11-12T10:31:23.992Z,91.51
2022-11-12T10:32:27.281Z,91.19
2022-11-12T10:34:02.732Z,91.52
2022-11-12T10:35:06.006Z,91.21
2022-11-12T10:36:09.236Z,91.17
2022-11-12T10:37:47.663Z,91.11
2022-11-12T10:38:50.933Z,90.80
2022-11-12T10:39:54.385Z,90.84
2022-11-12T10:41:29.867Z,90.73
2022-11-12T10:42:33.016Z,89.13
2022-11-12T10:43:36.218Z,89.29
2022-11-12T10:45:11.473Z,89.47
2022-11-12T10:46:14.854Z,89.42
2022-11-12T10:47:18.263Z,89.08
2022-11-12T10:48:53.705Z,88.51
2022-11-12T10:49:56.910Z,88.52
2022-11-12T10:51:00.377Z,88.37
2022-11-12T10:52:35.844Z,87.75
2022-11-12T10:53:39.218Z,87.63
2022-11-12T10:54:42.473Z,87.68
2022-11-12T10:56:25.037Z,88.01
2022-11-12T10:57:28.531Z,88.20
2022-11-12T10:58:32.347Z,88.27
2022-11-12T11:00:17.677Z,88.45
2022-11-12T11:01:21.058Z,87.66
2022-11-12T11:02:32.602Z,87.73
2022-11-12T11:04:08.252Z,86.79
2022-11-12T11:05:11.696Z,87.08
2022-11-12T11:06:15.010Z,87.30
2022-11-12T11:07:50.917Z,86.45
2022-11-12T11:08:54.350Z,85.96
2022-11-12T11:09:57.890Z,85.86
2022-11-12T11:11:33.473Z,86.32
2022-11-12T11:12:36.978Z,86.27
2022-11-12T11:13:40.295Z,86.05
2022-11-12T11:15:19.175Z,86.43
2022-11-12T11:16:21.898Z,86.38
2022-11-12T11:17:24.567Z,85.29
2022-11-12T11:18:59.058Z,85.03
2022-11-12T11:20:01.822Z,85.38
2022-11-12T11:21:04.643Z,85.52
2022-11-12T11:22:39.906Z,85.23
2022-11-12T11:23:42.638Z,85.29
2022-11-12T11:24:45.351Z,85.18
2022-11-12T11:26:20.129Z,84.64
2022-11-12T11:27:22.773Z,84.43
2022-11-12T11:28:25.738Z,85.07
2022-11-12T11:30:00.605Z,84.75
2022-11-12T11:31:03.395Z,84.36
2022-11-12T11:32:06.165Z,84.32
2022-11-12T11:33:46.781Z,83.48
2022-11-12T11:34:49.555Z,83.45
2022-11-12T11:35:52.206Z,83.41
2022-11-12T11:37:26.701Z,83.94
2022-11-12T11:38:30.050Z,83.05
2022-11-12T11:39:33.004Z,83.36
2022-11-12T11:41:07.383Z,83.19
2022-11-12T11:42:10.061Z,82.97
2022-11-12T11:43:12.745Z,82.52
2022-11-12T11:44:54.238Z,84.24
2022-11-12T11:45:57.006Z,84.25
2022-11-12T11:46:59.724Z,84.35
2022-11-12T11:48:53.152Z,84.38
2022-11-12T11:49:55.840Z,83.15
2022-11-12T11:50:58.600Z,83.02
2022-11-12T11:52:38.277Z,83.41
2022-11-12T11:53:41.234Z,83.57
2022-11-12T11:54:43.975Z,83.62
2022-11-12T11:56:18.432Z,82.35
2022-11-12T11:57:21.151Z,81.79
2022-11-12T11:58:24.242Z,82.12
2022-11-12T11:59:59.192Z,82.62
2022-11-12T12:00:18.128Z,82.62
2022-11-12T12:01:20.752Z,82.46
2022-11-12T12:02:23.409Z,82.97
2022-11-12T12:03:58.297Z,82.63
2022-11-12T12:05:01.153Z,82.57
2022-11-12T12:06:03.873Z,82.47
2022-11-12T12:07:38.778Z,82.39
2022-11-12T12:08:41.549Z,82.49
2022-11-12T12:09:44.262Z,81.55
2022-11-12T12:11:58.816Z,81.26
2022-11-12T12:13:01.570Z,81.60
2022-11-12T12:14:04.290Z,80.98
2022-11-12T12:15:38.867Z,80.23
2022-11-12T12:16:41.807Z,81.30
2022-11-12T12:17:44.516Z,80.06
2022-11-12T12:19:19.987Z,80.33
2022-11-12T12:20:22.813Z,81.01
2022-11-12T12:21:25.557Z,81.64
2022-11-12T12:23:00.058Z,80.62
2022-11-12T12:24:02.751Z,78.89
2022-11-12T12:25:05.403Z,78.40
2022-11-12T12:26:46.142Z,78.52
2022-11-12T12:27:48.826Z,78.71
2022-11-12T12:28:51.580Z,79.22
2022-11-12T12:30:26.061Z,78.88
2022-11-12T12:31:29.022Z,79.39
2022-11-12T12:32:31.701Z,79.20
2022-11-12T12:34:06.223Z,78.39
2022-11-12T12:35:09.042Z,78.22
2022-11-12T12:36:11.914Z,78.30
2022-11-12T12:37:46.532Z,78.77
2022-11-12T12:38:49.393Z,78.26
2022-11-12T12:39:53.935Z,78.08
2022-11-12T12:41:28.490Z,78.05
2022-11-12T12:42:31.118Z,78.46
2022-11-12T12:43:33.851Z,76.39
2022-11-12T12:45:08.364Z,76.92
2022-11-12T12:46:16.457Z,77.24
2022-11-12T12:47:19.194Z,77.39
2022-11-12T12:48:53.882Z,77.76
2022-11-12T12:49:56.575Z,77.28
2022-11-12T12:50:59.261Z,77.32
2022-11-12T12:52:41.646Z,76.95
2022-11-12T12:53:44.445Z,77.14
2022-11-12T12:54:47.127Z,77.11
2022-11-12T12:56:21.528Z,77.13
2022-11-12T12:57:24.308Z,77.16
2022-11-12T12:58:27.443Z,76.98
2022-11-12T13:00:21.256Z,77.33
2022-11-12T13:01:24.543Z,76.99
2022-11-12T13:02:27.342Z,76.93
2022-11-12T13:04:01.785Z,76.85
2022-11-12T13:05:04.500Z,76.97
2022-11-12T13:06:07.170Z,77.09
2022-11-12T13:07:42.202Z,77.22
2022-11-12T13:08:44.827Z,77.48
2022-11-12T13:09:47.368Z,77.23
2022-11-12T13:11:22.130Z,77.26
2022-11-12T13:12:24.958Z,77.36
2022-11-12T13:13:32.661Z,77.29
2022-11-12T13:15:07.585Z,77.16
2022-11-12T13:16:10.251Z,77.37
2022-11-12T13:17:13.211Z,77.34
2022-11-12T13:18:47.722Z,77.22
2022-11-12T13:19:50.449Z,77.24
2022-11-12T13:20:53.225Z,77.44
2022-11-12T13:22:27.808Z,78.15
2022-11-12T13:23:37.247Z,78.20
2022-11-12T13:24:39.972Z,78.10
2022-11-12T13:26:14.621Z,77.69
2022-11-12T13:27:17.413Z,77.43
2022-11-12T13:28:20.118Z,77.72
2022-11-12T13:29:55.418Z,77.89
2022-11-12T13:30:58.213Z,77.84
2022-11-12T13:32:01.250Z,77.85
2022-11-12T13:33:35.826Z,76.76
2022-11-12T13:34:38.575Z,76.66
2022-11-12T13:35:41.315Z,76.83
2022-11-12T13:37:15.802Z,76.82
2022-11-12T13:38:18.484Z,77.17
2022-11-12T13:39:22.025Z,77.40
2022-11-12T13:40:57.004Z,77.09
2022-11-12T13:41:59.772Z,77.16
2022-11-12T13:43:02.505Z,76.22
2022-11-12T13:44:37.399Z,76.85
2022-11-12T13:45:47.486Z,77.13
2022-11-12T13:46:50.248Z,77.31
2022-11-12T13:48:24.986Z,77.52
2022-11-12T13:49:27.918Z,77.56
2022-11-12T13:50:30.627Z,77.27
2022-11-12T13:52:09.579Z,77.19
2022-11-12T13:53:12.382Z,77.41
2022-11-12T13:54:15.094Z,77.04
2022-11-12T13:55:49.645Z,76.28
2022-11-12T13:56:52.444Z,75.50
2022-11-12T13:58:00.409Z,75.51
2022-11-12T13:59:34.995Z,75.81
2022-11-12T14:00:17.588Z,75.57
2022-11-12T14:01:20.500Z,75.57
2022-11-12T14:02:23.294Z,75.74
2022-11-12T14:04:03.705Z,75.89
2022-11-12T14:05:06.339Z,76.15
2022-11-12T14:06:09.064Z,75.96
2022-11-12T14:07:43.858Z,76.40
2022-11-12T14:08:46.478Z,76.76
2022-11-12T14:09:49.197Z,76.95
2022-11-12T14:11:29.514Z,77.66
2022-11-12T14:12:32.448Z,77.68
2022-11-12T14:13:35.084Z,77.49
2022-11-12T14:15:09.581Z,77.30
2022-11-12T14:16:12.355Z,77.57
2022-11-12T14:17:18.219Z,77.64
2022-11-12T14:18:56.332Z,77.90
2022-11-12T14:19:59.006Z,78.28
2022-11-12T14:21:01.902Z,78.35
2022-11-12T14:22:36.351Z,78.50
2022-11-12T14:23:39.005Z,78.53
2022-11-12T14:24:41.756Z,78.70
2022-11-12T14:26:16.153Z,78.75
2022-11-12T14:27:18.734Z,78.78
2022-11-12T14:28:21.466Z,78.49
2022-11-12T14:29:56.631Z,78.05
2022-11-12T14:30:59.290Z,77.82
2022-11-12T14:32:02.090Z,77.58
2022-11-12T14:33:36.500Z,77.73
2022-11-12T14:34:39.236Z,77.87
2022-11-12T14:35:41.918Z,77.91
2022-11-12T14:37:16.474Z,78.14
2022-11-12T14:38:24.437Z,78.02
2022-11-12T14:39:27.621Z,78.19
2022-11-12T14:41:02.181Z,78.31
2022-11-12T14:42:04.860Z,78.15
2022-11-12T14:43:07.885Z,78.19
2022-11-12T14:45:04.548Z,78.08
2022-11-12T14:46:14.465Z,78.23
2022-11-12T14:47:17.164Z,78.21
2022-11-12T14:48:51.661Z,78.14
2022-11-12T14:49:54.355Z,78.06
2022-11-12T14:50:57.033Z,78.03
2022-11-12T14:52:31.451Z,78.12
2022-11-12T14:53:34.597Z,78.37
2022-11-12T14:54:37.300Z,78.53
2022-11-12T14:56:11.845Z,78.60
2022-11-12T14:57:21.456Z,78.52
2022-11-12T14:58:24.328Z,78.61
2022-11-12T14:59:58.708Z,78.78
2022-11-12T15:00:17.634Z,78.71
2022-11-12T15:02:36.844Z,78.73
2022-11-12T15:03:57.090Z,78.79
2022-11-12T15:05:31.639Z,78.87
2022-11-12T15:06:34.519Z,79.01
2022-11-12T15:07:37.658Z,79.02
2022-11-12T15:09:12.447Z,78.96
2022-11-12T15:10:15.268Z,78.99
2022-11-12T15:11:24.357Z,79.42
2022-11-12T15:12:58.793Z,79.61
2022-11-12T15:14:01.596Z,79.68
2022-11-12T15:15:04.214Z,79.76
2022-11-12T15:16:38.618Z,80.07
2022-11-12T15:17:41.244Z,80.13
2022-11-12T15:18:43.944Z,80.30
2022-11-12T15:20:18.841Z,80.54
2022-11-12T15:21:21.495Z,80.47
2022-11-12T15:22:24.255Z,80.48
2022-11-12T15:23:58.535Z,80.63
2022-11-12T15:25:01.416Z,80.66
2022-11-12T15:26:04.427Z,80.81
2022-11-12T15:27:43.132Z,80.86
2022-11-12T15:28:45.801Z,80.96
2022-11-12T15:29:48.499Z,80.94
2022-11-12T15:31:22.902Z,80.95
2022-11-12T15:32:25.555Z,81.10
2022-11-12T15:33:28.653Z,81.15
2022-11-12T15:35:03.471Z,81.14
2022-11-12T15:36:06.085Z,81.15
2022-11-12T15:37:08.730Z,80.99
2022-11-12T15:38:43.199Z,81.05
2022-11-12T15:39:45.883Z,81.05
2022-11-12T15:40:51.917Z,81.01
2022-11-12T15:42:28.888Z,80.95
2022-11-12T15:43:32.207Z,80.96
2022-11-12T15:44:34.794Z,81.01
2022-11-12T15:46:09.167Z,80.95
2022-11-12T15:47:12.246Z,80.94
2022-11-12T15:48:14.811Z,81.01
2022-11-12T15:49:49.099Z,81.16
2022-11-12T15:50:52.082Z,81.10
2022-11-12T15:51:54.732Z,81.14
2022-11-12T15:53:29.765Z,81.19